Wednesday, March 21, 2018, 4:33 AM EDT
Back to Local

KVAY, Mt Holly South Jersey Rgnl

Location: Medford, NJ, United States Lat: 39.933
Local Time: 4:33 AM EDT ( 8:33 GMT) Lon: -74.833
Time Zone: US/Eastern Elev: 52 ft

Show me the last for .
Show Decoded

2018-03-21 03:54 METAR KVAY 210754Z AUTO 04011G19KT 10SM -RA OVC038 02/M07 A2965 RMK AO2
                 UPB36E43RAB43 SLP041 P0000 T00221072 $ =
2018-03-21 02:54 METAR KVAY 210654Z AUTO 03010G18KT 10SM OVC036 02/M06 A2969 RMK AO2 SLP054
                 T00221061 $ =
2018-03-21 01:54 METAR KVAY 210554Z AUTO 04010KT 10SM OVC038 02/M06 A2970 RMK AO2 SLP059 6////
                 I6000 T00221056 10022 21006 55009 PNO $ =
2018-03-21 00:54 METAR KVAY 210454Z AUTO 05008G16KT 10SM OVC041 02/M05 A2970 RMK AO2 SLP056
                 T00171050 400171028 PNO $ =
2018-03-20 23:54 METAR KVAY 210354Z AUTO 02003KT 10SM FEW037 OVC060 01/M03 A2973 RMK AO2 SLP067
                 T00061033 PNO $ =
2018-03-20 22:54 METAR KVAY 210254Z AUTO 03004KT 10SM SCT050 OVC100 00/M03 A2973 RMK AO2 SLP068
                 6//// I3000 T00001033 58021 PNO $ =
2018-03-20 21:54 METAR KVAY 210154Z AUTO 04004KT 10SM BKN060 00/M03 A2976 RMK AO2 SLP077
                 T00001033 PNO $ =
2018-03-20 20:54 METAR KVAY 210054Z AUTO 04006KT 10SM OVC090 00/M03 A2978 RMK AO2 UPB09E15FZRAE09
                 SLP085 I1000 T00001033 PNO $ =
2018-03-20 20:15 METAR KVAY 210015Z AUTO 05007G16KT 10SM FEW065 OVC110 M01/M03 A2979 RMK AO2
                 UPB09E15FZRAE09 I1000 T10061033 PNO $ =
2018-03-20 19:54 METAR KVAY 202354Z AUTO 03011G17KT 8SM -FZRA OVC060 M01/M03 A2979 RMK AO2
                 UPE27FZRAB27 SLP089 6//// I1002 I6003 T10061033 10000 21017 50003 PNO $ =
2018-03-20 19:46 METAR KVAY 202346Z AUTO 04011G17KT 7SM -FZRA OVC060 M01/M03 A2979 RMK AO2
                 UPE27FZRAB27 I1002 T10061033 PNO $ =
2018-03-20 19:30 METAR KVAY 202330Z AUTO 03008G15KT 6SM FZRA OVC055 M01/M03 A2980 RMK AO2
                 UPE27FZRAB27 P0000 I1001 T10061033 =
2018-03-20 18:54 METAR KVAY 202254Z AUTO 02011KT 7SM UP SCT042 OVC049 M01/M03 A2981 RMK AO2
                 UPB14SNE14 SLP095 P0000 I1000 T10111033 =
2018-03-20 17:54 METAR KVAY 202154Z AUTO 03010KT 4SM -SN BR BKN037 OVC045 M02/M03 A2980 RMK AO2
                 SLP092 P0000 T10171028 =
2018-03-20 17:46 METAR KVAY 202146Z AUTO 03009G23KT 3SM -SN BR BKN033 OVC040 M02/M03 A2980 RMK
                 AO2 P0000 T10171033 =
2018-03-20 17:39 METAR KVAY 202139Z AUTO 04012G18KT 010V070 1 1/4SM -SN BR BKN029 OVC040 M02/M03
                 A2981 RMK AO2 P0000 T10171028 =
2018-03-20 17:32 METAR KVAY 202132Z AUTO 04011G18KT 3/4SM -SN BR BKN022 OVC031 M02/M03 A2981 RMK
                 AO2 P0000 T10171028 =
2018-03-20 17:25 METAR KVAY 202125Z AUTO 05013G18KT 3/4SM -SN BR SCT022 BKN031 OVC038 M01/M02
                 A2980 RMK AO2 P0000 T10111022 =
2018-03-20 17:19 METAR KVAY 202119Z AUTO 03009KT 1 1/2SM -SN BR SCT024 OVC033 M01/M02 A2980 RMK
                 AO2 P0000 T10111022 =
2018-03-20 17:10 METAR KVAY 202110Z AUTO 05006KT 1 1/4SM -SN BR BKN029 OVC040 M01/M02 A2980 RMK
                 AO2 P0000 T10111022 =
2018-03-20 17:06 METAR KVAY 202106Z AUTO 05007KT 3/4SM -SN BR BKN029 OVC040 M01/M02 A2980 RMK AO2
                 P0000 T10111022 =
2018-03-20 16:58 METAR KVAY 202058Z AUTO 04008KT 1SM -SN BR BKN029 OVC040 M01/M03 A2979 RMK AO2
                 P0000 T10111028 =
2018-03-20 16:54 METAR KVAY 202054Z AUTO 03011KT 1 1/2SM -SN BR BKN031 OVC042 M01/M03 A2978 RMK
                 AO2 UPB06E34SNE06B34 SLP086 P0000 60000 I3001 T10111033 56006 =
2018-03-20 16:51 METAR KVAY 202051Z AUTO 03009KT 1 3/4SM -SN OVC036 M01/M03 A2979 RMK AO2
                 UPB06E34SNE06B34 P0000 =
2018-03-20 15:54 METAR KVAY 201954Z AUTO 05008KT 6SM -SN SCT044 OVC055 00/M03 A2979 RMK AO2
                 UPB01E48FZRAE01SNB30E43B48 SLP089 P0000 I1000 T00001033 =
2018-03-20 15:07 METAR KVAY 201907Z AUTO 05006G15KT 8SM UP OVC065 00/M03 A2980 RMK AO2
                 UPB01FZRAE01 P0000 I1000 T00001028 =
2018-03-20 14:54 METAR KVAY 201854Z AUTO 04008G17KT 6SM -FZRA BR OVC065 M01/M03 A2980 RMK AO2
                 UPB1755E39FZRAB39SNE1755B19E29 SLP092 P0000 I1001 T10061028 =
2018-03-20 14:45 METAR KVAY 201845Z AUTO 04007KT 7SM -FZRA OVC060 M01/M02 A2980 RMK AO2
                 UPB1755E39FZRAB39SNE1755B19E29 P0000 I1001 T10061022 =
2018-03-20 14:01 METAR KVAY 201801Z AUTO 04012G19KT 5SM UP BR BKN055 OVC065 M01/M03 A2983 RMK AO2
                 UPB1755SNE1755 P0000 T10111028 =
2018-03-20 13:54 METAR KVAY 201754Z AUTO 04009G22KT 2 1/2SM -SN BR BKN047 OVC065 M01/M03 A2983
                 RMK AO2 SLP100 P0000 60000 T10111028 10017 21011 55019 =
2018-03-20 13:50 METAR KVAY 201750Z AUTO 04013G22KT 2SM -SN BR BKN047 BKN055 OVC065 M01/M03 A2982
                 RMK AO2 P0000 =
2018-03-20 13:39 METAR KVAY 201739Z AUTO 04010G19KT 1SM -SN BR BKN035 OVC049 M01/M03 A2983 RMK
                 AO2 PRESFR P0000 T10111028 =
2018-03-20 13:30 METAR KVAY 201730Z AUTO 05010G18KT 1 1/4SM -SN BR BKN029 BKN036 OVC050 M01/M03
                 A2984 RMK AO2 P0000 T10111028 =
2018-03-20 13:05 METAR KVAY 201705Z AUTO 04010G16KT 3/4SM -SN BR VV018 M01/M03 A2987 RMK AO2
                 P0000 T10111028 =
2018-03-20 12:54 METAR KVAY 201654Z AUTO 05009G15KT 3/4SM -SN BR VV014 M01/M03 A2987 RMK AO2
                 SLP117 P0000 T10111028 =
2018-03-20 12:40 METAR KVAY 201640Z AUTO 04008G21KT 1/2SM SN VV018 M01/M04 A2987 RMK AO2 P0000
                 T10061039 =
2018-03-20 12:32 METAR KVAY 201632Z AUTO 05013G18KT 1SM -SN OVC023 00/M05 A2987 RMK AO2 P0000
                 T00001050 =
2018-03-20 12:29 METAR KVAY 201629Z AUTO 04011G18KT 2 1/2SM -SN BKN025 OVC050 01/M05 A2987 RMK
                 AO2 P0000 T00061050 =
2018-03-20 11:54 METAR KVAY 201554Z AUTO 05011G18KT 3SM -SN BKN034 OVC055 01/M05 A2988 RMK AO2
                 SNB16 SLP119 P0000 T00061050 =
2018-03-20 10:54 METAR KVAY 201454Z AUTO 07006KT 10SM OVC055 02/M06 A2989 RMK AO2 SLP123
                 T00171061 58007 =
2018-03-20 09:54 METAR KVAY 201354Z AUTO VRB06KT 10SM OVC060 01/M07 A2992 RMK AO2 SLP132
                 T00111072 =
2018-03-20 08:54 METAR KVAY 201254Z AUTO 05008KT 10SM OVC080 01/M07 A2991 RMK AO2 SLP130
                 T00111072 =
2018-03-20 07:54 METAR KVAY 201154Z AUTO 06007KT 10SM FEW055 01/M08 A2992 RMK AO2 SLP131
                 T00061083 10011 21028 51002 =
2018-03-20 06:54 METAR KVAY 201054Z AUTO 06008KT 10SM FEW100 01/M08 A2992 RMK AO2 SLP131
                 T00061078 =
2018-03-20 05:54 METAR KVAY 200954Z AUTO 06005KT 10SM SCT048 01/M06 A2992 RMK AO2 SLP132
                 T00061061 =
2018-03-20 04:54 METAR KVAY 200854Z AUTO 06003KT 10SM CLR 00/M08 A2991 RMK AO2 SLP129 T00001078
                 58013 =

Support USWX by starting your Amazon purchase here.